createdAt,value
2022-09-16T00:00:04.786Z,5.90
2022-09-16T00:03:07.564Z,6.20
2022-09-16T00:06:29.717Z,6.87
2022-09-16T00:09:32.197Z,5.55
2022-09-16T00:12:34.840Z,4.90
2022-09-16T00:15:37.489Z,5.70
2022-09-16T00:18:40.256Z,7.70
2022-09-16T00:21:42.669Z,6.53
2022-09-16T00:24:45.314Z,6.25
2022-09-16T00:27:49.535Z,6.85
2022-09-16T00:30:52.446Z,6.90
2022-09-16T00:33:54.835Z,6.33
2022-09-16T00:36:58.215Z,7.87
2022-09-16T00:40:00.794Z,7.80
2022-09-16T00:43:03.631Z,8.98
2022-09-16T00:46:06.050Z,8.60
2022-09-16T00:49:24.875Z,7.33
2022-09-16T00:52:28.400Z,7.15
2022-09-16T00:55:34.271Z,6.68
2022-09-16T00:58:39.601Z,6.55
2022-09-16T01:01:44.842Z,6.20
2022-09-16T01:05:00.527Z,8.13
2022-09-16T01:08:03.332Z,4.95
2022-09-16T01:11:05.848Z,6.72
2022-09-16T01:14:27.555Z,10.32
2022-09-16T01:17:51.995Z,7.87
2022-09-16T01:21:09.632Z,7.40
2022-09-16T01:24:11.887Z,7.65
2022-09-16T01:27:18.802Z,9.15
2022-09-16T01:30:42.647Z,7.78
2022-09-16T01:34:09.953Z,8.53
2022-09-16T01:37:33.749Z,8.67
2022-09-16T01:41:15.313Z,7.85
2022-09-16T01:44:27.083Z,8.32
2022-09-16T01:47:48.391Z,9.68
2022-09-16T01:50:59.951Z,9.40
2022-09-16T01:54:12.987Z,7.67
2022-09-16T01:57:19.626Z,7.47
2022-09-16T02:00:22.601Z,7.75
2022-09-16T02:03:29.839Z,8.00
2022-09-16T02:06:32.927Z,7.67
2022-09-16T02:09:39.371Z,7.90
2022-09-16T02:12:44.471Z,8.45
2022-09-16T02:15:49.958Z,6.43
2022-09-16T02:18:55.619Z,8.77
2022-09-16T02:22:00.796Z,9.00
2022-09-16T02:25:05.289Z,8.83
2022-09-16T02:28:13.084Z,7.85
2022-09-16T02:31:16.627Z,8.32
2022-09-16T02:34:22.378Z,8.20
2022-09-16T02:37:33.016Z,8.90
2022-09-16T02:40:40.883Z,11.60
2022-09-16T02:43:44.958Z,6.37
2022-09-16T02:47:01.415Z,6.97
2022-09-16T02:50:14.280Z,7.32
2022-09-16T02:53:45.251Z,7.17
2022-09-16T02:56:48.016Z,7.47
2022-09-16T02:59:50.744Z,5.75
2022-09-16T03:02:54.207Z,5.37
2022-09-16T03:06:08.765Z,7.43
2022-09-16T03:09:16.265Z,5.87
2022-09-16T03:13:09.784Z,6.60
2022-09-16T03:16:21.194Z,5.68
2022-09-16T03:19:56.372Z,5.72
2022-09-16T03:23:07.989Z,6.82
2022-09-16T03:26:21.241Z,6.83
2022-09-16T03:29:36.335Z,6.67
2022-09-16T03:32:46.446Z,9.43
2022-09-16T03:35:49.993Z,6.85
2022-09-16T03:38:53.779Z,6.93
2022-09-16T03:42:03.799Z,5.90
2022-09-16T03:45:07.452Z,8.23
2022-09-16T03:48:11.163Z,9.50
2022-09-16T03:51:13.756Z,6.97
2022-09-16T03:54:16.530Z,9.23
2022-09-16T03:57:18.917Z,8.37
2022-09-16T04:00:23.247Z,5.03
2022-09-16T04:03:28.870Z,7.85
2022-09-16T04:06:33.586Z,5.60
2022-09-16T04:09:37.370Z,6.45
2022-09-16T04:12:39.900Z,8.20
2022-09-16T04:15:42.585Z,8.60
2022-09-16T04:18:45.019Z,5.37
2022-09-16T04:21:47.709Z,3.83
2022-09-16T04:24:52.706Z,8.07
2022-09-16T04:27:55.547Z,10.23
2022-09-16T04:31:02.761Z,8.80
2022-09-16T04:34:06.591Z,6.85
2022-09-16T04:37:08.966Z,7.37
2022-09-16T04:40:12.583Z,5.70
2022-09-16T04:43:15.145Z,6.97
2022-09-16T04:46:17.813Z,6.30
2022-09-16T04:49:20.206Z,7.18
2022-09-16T04:52:22.882Z,6.12
2022-09-16T04:55:25.311Z,6.22
2022-09-16T04:58:29.657Z,8.20
2022-09-16T05:01:37.696Z,8.33
2022-09-16T05:04:40.393Z,7.10
2022-09-16T05:07:42.831Z,8.98
2022-09-16T05:10:46.391Z,6.37
2022-09-16T05:13:48.769Z,7.47
2022-09-16T05:16:51.439Z,8.30
2022-09-16T05:19:53.809Z,5.85
2022-09-16T05:22:56.512Z,8.27
2022-09-16T05:26:06.725Z,7.18
2022-09-16T05:29:12.688Z,6.07
2022-09-16T05:32:15.091Z,5.93
2022-09-16T05:35:18.009Z,6.43
2022-09-16T05:38:20.361Z,6.80
2022-09-16T05:41:23.491Z,6.55
2022-09-16T05:44:27.096Z,7.13
2022-09-16T05:47:29.772Z,6.73
2022-09-16T05:50:32.188Z,6.50
2022-09-16T05:53:35.084Z,6.40
2022-09-16T05:56:37.603Z,5.50
2022-09-16T05:59:40.260Z,4.27
2022-09-16T06:02:42.854Z,5.00
2022-09-16T06:05:46.013Z,4.28
2022-09-16T06:08:48.947Z,4.68
2022-09-16T06:11:56.691Z,4.87
2022-09-16T06:15:03.262Z,4.17
2022-09-16T06:18:06.684Z,6.63
2022-09-16T06:21:11.053Z,5.90
2022-09-16T06:24:15.450Z,4.07
2022-09-16T06:27:17.879Z,4.82
2022-09-16T06:30:21.225Z,5.33
2022-09-16T06:33:23.563Z,4.30
2022-09-16T06:36:29.143Z,4.68
2022-09-16T06:39:31.638Z,4.90
2022-09-16T06:42:34.325Z,4.75
2022-09-16T06:45:38.944Z,3.93
2022-09-16T06:48:43.461Z,4.70
2022-09-16T06:51:45.869Z,2.90
2022-09-16T06:54:48.593Z,4.85
2022-09-16T06:57:51.710Z,3.17
2022-09-16T07:00:54.424Z,3.50
2022-09-16T07:03:58.608Z,3.87
2022-09-16T07:07:09.968Z,5.15
2022-09-16T07:10:12.949Z,3.15
2022-09-16T07:13:15.721Z,6.80
2022-09-16T07:16:20.891Z,3.93
2022-09-16T07:19:23.674Z,3.27
2022-09-16T07:22:26.111Z,3.30
2022-09-16T07:25:32.455Z,3.80
2022-09-16T07:28:40.261Z,4.00
2022-09-16T07:31:43.330Z,4.67
2022-09-16T07:34:45.854Z,3.10
2022-09-16T07:37:48.554Z,3.78
2022-09-16T07:40:51.043Z,4.57
2022-09-16T07:43:55.130Z,2.40
2022-09-16T07:46:57.551Z,3.40
2022-09-16T07:50:00.317Z,3.43
2022-09-16T07:53:03.304Z,2.95
2022-09-16T07:56:10.171Z,4.70
2022-09-16T07:59:18.409Z,3.12
2022-09-16T08:02:21.818Z,2.77
2022-09-16T08:05:24.535Z,3.90
2022-09-16T08:08:26.909Z,4.45
2022-09-16T08:11:30.511Z,4.32
2022-09-16T08:14:33.454Z,5.22
2022-09-16T08:17:36.258Z,3.97
2022-09-16T08:20:39.372Z,3.10
2022-09-16T08:23:42.444Z,2.97
2022-09-16T08:26:44.966Z,3.37
2022-09-16T08:29:47.777Z,5.60
2022-09-16T08:32:58.791Z,5.90
2022-09-16T08:36:02.489Z,2.70
2022-09-16T08:39:04.957Z,3.30
2022-09-16T08:42:28.658Z,3.75
2022-09-16T08:45:40.127Z,3.42
2022-09-16T08:48:52.649Z,3.07
2022-09-16T08:51:55.540Z,6.03
2022-09-16T08:55:02.925Z,3.37
2022-09-16T08:58:23.465Z,4.75
2022-09-16T09:01:48.601Z,2.87
2022-09-16T09:04:51.370Z,3.97
2022-09-16T09:08:11.739Z,3.90
2022-09-16T09:11:34.569Z,3.67
2022-09-16T09:14:42.069Z,2.65
2022-09-16T09:18:02.702Z,3.40
2022-09-16T09:21:11.475Z,3.10
2022-09-16T09:24:42.090Z,4.97
2022-09-16T09:28:03.546Z,3.53
2022-09-16T09:31:32.337Z,6.62
2022-09-16T09:34:53.461Z,3.12
2022-09-16T09:38:17.189Z,2.83
2022-09-16T09:41:29.600Z,4.00
2022-09-16T09:44:46.447Z,3.53
2022-09-16T09:48:05.157Z,2.97
2022-09-16T09:51:31.863Z,3.03
2022-09-16T09:54:35.529Z,6.20
2022-09-16T09:57:42.034Z,3.10
2022-09-16T10:00:44.799Z,4.65
2022-09-16T10:03:48.880Z,3.40
2022-09-16T10:06:53.289Z,3.33
2022-09-16T10:10:14.317Z,2.80
2022-09-16T10:13:17.504Z,3.47
2022-09-16T10:16:22.625Z,2.67
2022-09-16T10:19:26.662Z,2.72
2022-09-16T10:22:34.386Z,3.75
2022-09-16T10:25:37.059Z,3.97
2022-09-16T10:28:39.751Z,5.20
2022-09-16T10:31:42.898Z,6.20
2022-09-16T10:34:46.495Z,4.30
2022-09-16T10:38:19.789Z,5.47
2022-09-16T10:41:25.391Z,6.57
2022-09-16T10:44:32.943Z,2.33
2022-09-16T10:47:36.367Z,3.10
2022-09-16T10:50:38.848Z,3.05
2022-09-16T10:53:45.893Z,3.05
2022-09-16T10:56:51.053Z,4.25
2022-09-16T11:00:11.745Z,3.80
2022-09-16T11:03:46.706Z,6.75
2022-09-16T11:06:59.350Z,3.78
2022-09-16T11:10:28.163Z,4.50
2022-09-16T11:13:36.193Z,4.28
2022-09-16T11:16:56.499Z,2.70
2022-09-16T11:20:18.465Z,4.53
2022-09-16T11:23:30.338Z,3.22
2022-09-16T11:26:36.733Z,4.85
2022-09-16T11:29:47.489Z,4.55
2022-09-16T11:33:22.269Z,3.30
2022-09-16T11:36:58.657Z,4.40
2022-09-16T11:40:07.160Z,4.45
2022-09-16T11:43:44.103Z,3.40
2022-09-16T11:47:15.893Z,3.62
2022-09-16T11:50:22.784Z,3.13
2022-09-16T11:53:45.160Z,3.75
2022-09-16T11:57:02.257Z,5.90
2022-09-16T12:00:13.895Z,4.40
2022-09-16T12:03:47.685Z,4.43
2022-09-16T12:07:03.832Z,3.90
2022-09-16T12:10:14.008Z,4.30
2022-09-16T12:13:20.305Z,4.60
2022-09-16T12:16:38.911Z,5.25
2022-09-16T12:20:05.583Z,4.10
2022-09-16T12:23:29.771Z,5.03
2022-09-16T12:26:39.865Z,6.45
2022-09-16T12:29:51.156Z,4.85
2022-09-16T12:33:15.431Z,4.82
2022-09-16T12:36:25.889Z,4.45
2022-09-16T12:39:28.790Z,5.07
2022-09-16T12:42:37.330Z,6.07
2022-09-16T12:46:05.665Z,7.30
2022-09-16T12:49:33.402Z,6.90
2022-09-16T12:52:47.934Z,6.70
2022-09-16T12:56:09.031Z,4.67
2022-09-16T12:59:16.908Z,7.57
2022-09-16T13:02:30.227Z,6.15
2022-09-16T13:05:35.088Z,4.87
2022-09-16T13:08:37.774Z,5.93
2022-09-16T13:15:05.347Z,11.82
2022-09-16T13:18:16.741Z,7.40
2022-09-16T13:21:25.935Z,5.53
2022-09-16T13:24:35.236Z,6.25
2022-09-16T13:27:39.372Z,4.43
2022-09-16T13:30:41.852Z,6.90
2022-09-16T13:33:44.528Z,8.30
2022-09-16T13:36:47.152Z,5.72
2022-09-16T13:39:50.483Z,5.72
2022-09-16T13:43:08.082Z,4.87
2022-09-16T13:46:26.047Z,8.00
2022-09-16T13:49:28.817Z,4.43
2022-09-16T13:52:34.145Z,3.60
2022-09-16T13:55:37.831Z,6.80
2022-09-16T13:59:05.126Z,4.43
2022-09-16T14:02:19.823Z,4.70
2022-09-16T14:05:54.859Z,5.95
2022-09-16T14:09:35.211Z,5.43
2022-09-16T14:12:55.165Z,5.73
2022-09-16T14:15:59.142Z,5.47
2022-09-16T14:19:06.416Z,6.55
2022-09-16T14:22:21.662Z,7.00
2022-09-16T14:25:29.916Z,7.12
2022-09-16T14:28:34.835Z,5.57
2022-09-16T14:31:45.180Z,4.20
2022-09-16T14:34:52.730Z,6.62
2022-09-16T14:37:59.222Z,5.50
2022-09-16T14:41:02.171Z,5.07
2022-09-16T14:44:20.967Z,4.17
2022-09-16T14:47:50.172Z,7.17
2022-09-16T14:50:51.901Z,6.18
2022-09-16T14:54:11.863Z,6.10
2022-09-16T14:57:23.299Z,9.55
2022-09-16T15:00:39.100Z,8.40
2022-09-16T15:03:53.572Z,10.00
2022-09-16T15:07:03.758Z,8.88
2022-09-16T15:10:09.691Z,8.80
2022-09-16T15:13:14.486Z,9.15
2022-09-16T15:16:19.061Z,7.97
2022-09-16T15:19:39.604Z,8.60
2022-09-16T15:22:43.015Z,7.37
2022-09-16T15:26:13.496Z,7.85
2022-09-16T15:29:20.170Z,7.85
2022-09-16T15:32:27.327Z,9.77
2022-09-16T15:35:35.757Z,6.33
2022-09-16T15:38:43.604Z,6.45
2022-09-16T15:41:47.141Z,5.80
2022-09-16T15:44:56.974Z,5.95
2022-09-16T15:48:05.286Z,7.27
2022-09-16T15:51:29.247Z,6.97
2022-09-16T15:54:37.211Z,7.70
2022-09-16T15:57:42.655Z,24.23
2022-09-16T16:01:06.710Z,19.05
2022-09-16T16:04:12.353Z,14.20
2022-09-16T16:07:39.230Z,13.93
2022-09-16T16:10:43.831Z,10.57
2022-09-16T16:13:48.007Z,10.77
2022-09-16T16:17:15.546Z,10.50
2022-09-16T16:20:19.770Z,8.47
2022-09-16T16:23:22.150Z,8.40
2022-09-16T16:26:24.859Z,5.37
2022-09-16T16:29:27.228Z,4.62
2022-09-16T16:32:31.644Z,5.15
2022-09-16T16:35:33.984Z,5.03
2022-09-16T16:38:36.709Z,4.15
2022-09-16T16:41:39.506Z,4.90
2022-09-16T16:44:42.566Z,5.37
2022-09-16T16:47:46.260Z,5.28
2022-09-16T16:50:59.997Z,5.53
2022-09-16T16:54:02.342Z,5.80
2022-09-16T16:57:05.219Z,8.13
2022-09-16T17:00:08.350Z,5.82
2022-09-16T17:03:11.288Z,7.20
2022-09-16T17:06:13.958Z,5.43
2022-09-16T17:09:17.166Z,7.57
2022-09-16T17:12:19.637Z,7.87
2022-09-16T17:15:22.415Z,8.52
2022-09-16T17:18:24.980Z,6.75
2022-09-16T17:21:30.241Z,7.73
2022-09-16T17:24:34.558Z,6.68
2022-09-16T17:27:37.281Z,5.20
2022-09-16T17:30:43.237Z,6.47
2022-09-16T17:33:46.679Z,5.22
2022-09-16T17:36:49.025Z,5.40
2022-09-16T17:39:52.281Z,5.45
2022-09-16T17:42:54.713Z,5.68
2022-09-16T17:45:58.589Z,7.03
2022-09-16T17:49:05.552Z,4.57
2022-09-16T17:52:08.256Z,6.87
2022-09-16T17:55:11.324Z,5.15
2022-09-16T17:58:15.530Z,6.93
2022-09-16T18:01:19.868Z,4.72
2022-09-16T18:04:22.561Z,6.12
2022-09-16T18:07:24.918Z,4.77
2022-09-16T18:10:27.733Z,5.03
2022-09-16T18:13:30.382Z,5.72
2022-09-16T18:16:33.048Z,5.35
2022-09-16T18:19:35.656Z,6.87
2022-09-16T18:22:38.636Z,6.73
2022-09-16T18:25:41.019Z,6.43
2022-09-16T18:29:08.633Z,6.87
2022-09-16T18:32:08.728Z,6.45
2022-09-16T18:35:12.650Z,6.55
2022-09-16T18:38:17.243Z,8.17
2022-09-16T18:41:22.942Z,17.77
2022-09-16T18:44:25.455Z,28.30
2022-09-16T18:47:28.134Z,22.80
2022-09-16T18:50:30.708Z,17.27
2022-09-16T18:53:33.405Z,11.30
2022-09-16T18:56:37.565Z,13.68
2022-09-16T18:59:40.565Z,10.00
2022-09-16T19:02:43.607Z,9.88
2022-09-16T19:05:56.393Z,8.82
2022-09-16T19:08:59.581Z,7.67
2022-09-16T19:12:02.484Z,8.63
2022-09-16T19:15:05.254Z,9.95
2022-09-16T19:18:07.990Z,9.15
2022-09-16T19:21:18.725Z,9.13
2022-09-16T19:24:23.424Z,9.27
2022-09-16T19:27:26.016Z,8.85
2022-09-16T19:30:28.800Z,8.90
2022-09-16T19:33:31.633Z,8.85
2022-09-16T19:36:35.572Z,8.93
2022-09-16T19:39:39.389Z,9.27
2022-09-16T19:42:42.086Z,9.40
2022-09-16T19:45:44.500Z,9.88
2022-09-16T19:48:48.348Z,10.52
2022-09-16T19:51:52.738Z,9.82
2022-09-16T19:54:55.538Z,9.73
2022-09-16T19:57:58.203Z,8.77
2022-09-16T20:01:02.528Z,10.23
2022-09-16T20:04:07.629Z,9.02
2022-09-16T20:07:14.206Z,9.32
2022-09-16T20:10:18.180Z,8.27
2022-09-16T20:13:20.717Z,7.55
2022-09-16T20:16:28.836Z,9.75
2022-09-16T20:19:31.374Z,10.43
2022-09-16T20:22:34.066Z,9.45
2022-09-16T20:25:37.590Z,10.23
2022-09-16T20:28:44.906Z,11.27
2022-09-16T20:31:48.589Z,8.73
2022-09-16T20:34:51.335Z,9.30
2022-09-16T20:37:53.798Z,7.68
2022-09-16T20:40:57.126Z,3.60
2022-09-16T20:43:59.918Z,4.05
2022-09-16T20:47:02.599Z,4.95
2022-09-16T20:50:05.617Z,3.40
2022-09-16T20:53:10.512Z,3.00
2022-09-16T20:56:14.912Z,4.80
2022-09-16T20:59:20.061Z,5.65
2022-09-16T21:02:22.708Z,4.40
2022-09-16T21:05:26.052Z,4.03
2022-09-16T21:08:33.249Z,2.12
2022-09-16T21:11:37.349Z,4.00
2022-09-16T21:14:39.959Z,5.22
2022-09-16T21:17:42.720Z,3.03
2022-09-16T21:20:45.361Z,4.90
2022-09-16T21:23:52.184Z,4.03
2022-09-16T21:26:54.594Z,3.30
2022-09-16T21:29:58.380Z,3.95
2022-09-16T21:33:00.817Z,4.43
2022-09-16T21:36:05.417Z,5.90
2022-09-16T21:39:08.717Z,4.68
2022-09-16T21:42:11.464Z,3.77
2022-09-16T21:45:15.093Z,5.43
2022-09-16T21:48:19.426Z,4.53
2022-09-16T21:51:22.279Z,4.53
2022-09-16T21:54:25.249Z,5.28
2022-09-16T21:57:27.629Z,4.50
2022-09-16T22:00:31.539Z,3.60
2022-09-16T22:03:35.220Z,5.18
2022-09-16T22:06:37.780Z,6.43
2022-09-16T22:09:40.548Z,4.07
2022-09-16T22:12:42.963Z,5.00
2022-09-16T22:15:52.189Z,5.65
2022-09-16T22:18:56.793Z,4.97
2022-09-16T22:21:59.590Z,5.10
2022-09-16T22:25:02.045Z,4.87
2022-09-16T22:28:04.729Z,4.10
2022-09-16T22:31:17.993Z,5.43
2022-09-16T22:34:20.777Z,4.97
2022-09-16T22:37:23.176Z,4.32
2022-09-16T22:40:26.905Z,6.40
2022-09-16T22:43:29.364Z,3.23
2022-09-16T22:46:35.034Z,3.78
2022-09-16T22:49:37.672Z,3.90
2022-09-16T22:52:40.295Z,3.03
2022-09-16T22:55:42.744Z,4.15
2022-09-16T22:58:46.101Z,2.30
2022-09-16T23:01:49.117Z,4.35
2022-09-16T23:04:54.121Z,3.42
2022-09-16T23:07:56.625Z,4.07
2022-09-16T23:11:02.850Z,3.45
2022-09-16T23:14:06.528Z,4.37
2022-09-16T23:17:09.335Z,5.15
2022-09-16T23:20:11.794Z,3.33
2022-09-16T23:23:14.459Z,2.20
2022-09-16T23:26:19.698Z,4.50
2022-09-16T23:29:22.561Z,5.00
2022-09-16T23:32:24.965Z,6.15
2022-09-16T23:35:27.876Z,4.90
2022-09-16T23:38:31.013Z,5.05
2022-09-16T23:41:34.062Z,4.82
2022-09-16T23:44:36.407Z,4.33
2022-09-16T23:47:39.084Z,4.80
2022-09-16T23:50:43.981Z,4.87
2022-09-16T23:53:47.499Z,5.30
2022-09-16T23:56:49.873Z,5.65
2022-09-16T23:59:52.536Z,5.10
